createdAt,value
2022-08-29T00:01:58.577Z,98.41
2022-08-29T00:05:01.218Z,98.49
2022-08-29T00:08:06.675Z,99.03
2022-08-29T00:11:09.293Z,100.00
2022-08-29T00:14:20.448Z,100.00
2022-08-29T00:17:25.918Z,99.91
2022-08-29T00:20:34.625Z,100.00
2022-08-29T00:23:39.017Z,100.00
2022-08-29T00:26:41.614Z,100.00
2022-08-29T00:29:44.235Z,99.67
2022-08-29T00:32:46.805Z,99.60
2022-08-29T00:35:49.445Z,100.00
2022-08-29T00:38:54.799Z,99.96
2022-08-29T00:42:01.011Z,100.00
2022-08-29T00:45:05.954Z,100.00
2022-08-29T00:48:13.089Z,99.34
2022-08-29T00:51:18.763Z,100.00
2022-08-29T00:54:23.530Z,100.00
2022-08-29T00:57:29.429Z,99.80
2022-08-29T01:00:33.106Z,100.00
2022-08-29T01:03:42.687Z,99.82
2022-08-29T01:06:46.644Z,99.11
2022-08-29T01:09:50.614Z,99.58
2022-08-29T01:12:52.401Z,98.92
2022-08-29T01:15:55.905Z,99.51
2022-08-29T01:19:04.125Z,100.00
2022-08-29T01:22:19.874Z,100.00
2022-08-29T01:25:26.853Z,99.31
2022-08-29T01:28:32.671Z,99.71
2022-08-29T01:31:55.895Z,99.54
2022-08-29T01:35:00.373Z,100.00
2022-08-29T01:38:03.108Z,100.00
2022-08-29T01:41:07.429Z,100.00
2022-08-29T01:44:12.473Z,100.00
2022-08-29T01:47:15.206Z,100.00
2022-08-29T01:50:18.255Z,100.00
2022-08-29T01:53:20.869Z,100.00
2022-08-29T01:56:27.280Z,100.00
2022-08-29T01:59:31.539Z,100.00
2022-08-29T02:02:34.328Z,100.00
2022-08-29T02:05:37.006Z,100.00
2022-08-29T02:08:41.290Z,100.00
2022-08-29T02:11:46.417Z,100.00
2022-08-29T02:14:50.601Z,100.00
2022-08-29T02:17:53.157Z,100.00
2022-08-29T02:20:55.826Z,100.00
2022-08-29T02:24:11.459Z,100.00
2022-08-29T02:27:24.936Z,100.00
2022-08-29T02:30:27.662Z,100.00
2022-08-29T02:33:31.288Z,100.00
2022-08-29T02:36:35.010Z,100.00
2022-08-29T02:39:37.622Z,100.00
2022-08-29T02:42:41.578Z,100.00
2022-08-29T02:45:44.834Z,100.00
2022-08-29T02:48:54.126Z,100.00
2022-08-29T02:52:06.510Z,100.00
2022-08-29T02:55:12.237Z,100.00
2022-08-29T02:58:16.753Z,100.00
2022-08-29T03:01:21.528Z,100.00
2022-08-29T03:04:24.270Z,100.00
2022-08-29T03:07:26.922Z,100.00
2022-08-29T03:10:29.790Z,100.00
2022-08-29T03:13:34.623Z,100.00
2022-08-29T03:16:37.275Z,100.00
2022-08-29T03:19:39.901Z,100.00
2022-08-29T03:22:42.614Z,100.00
2022-08-29T03:25:45.235Z,100.00
2022-08-29T03:28:49.220Z,100.00
2022-08-29T03:31:51.832Z,100.00
2022-08-29T03:34:55.785Z,100.00
2022-08-29T03:37:58.505Z,100.00
2022-08-29T03:41:01.084Z,100.00
2022-08-29T03:44:05.215Z,100.00
2022-08-29T03:47:08.251Z,100.00
2022-08-29T03:50:13.096Z,100.00
2022-08-29T03:53:17.249Z,100.00
2022-08-29T03:56:20.626Z,100.00
2022-08-29T03:59:24.705Z,100.00
2022-08-29T04:02:27.430Z,100.00
2022-08-29T04:05:30.106Z,100.00
2022-08-29T04:08:32.708Z,100.00
2022-08-29T04:11:35.287Z,100.00
2022-08-29T04:14:39.477Z,100.00
2022-08-29T04:17:51.036Z,100.00
2022-08-29T04:21:02.573Z,100.00
2022-08-29T04:24:05.261Z,100.00
2022-08-29T04:27:08.062Z,100.00
2022-08-29T04:30:15.533Z,100.00
2022-08-29T04:33:22.521Z,100.00
2022-08-29T04:36:26.049Z,100.00
2022-08-29T04:39:28.618Z,100.00
2022-08-29T04:42:32.028Z,100.00
2022-08-29T04:45:36.743Z,100.00
2022-08-29T04:48:39.306Z,100.00
2022-08-29T04:51:41.955Z,100.00
2022-08-29T04:54:44.537Z,100.00
2022-08-29T04:57:47.482Z,100.00
2022-08-29T05:00:52.642Z,100.00
2022-08-29T05:03:56.477Z,100.00
2022-08-29T05:06:59.104Z,100.00
2022-08-29T05:10:05.314Z,100.00
2022-08-29T05:13:07.910Z,100.00
2022-08-29T05:16:13.974Z,100.00
2022-08-29T05:19:16.990Z,100.00
2022-08-29T05:22:21.070Z,100.00
2022-08-29T05:25:24.186Z,100.00
2022-08-29T05:28:26.927Z,100.00
2022-08-29T05:31:31.222Z,100.00
2022-08-29T05:34:35.292Z,100.00
2022-08-29T05:37:38.696Z,100.00
2022-08-29T05:40:41.859Z,100.00
2022-08-29T05:43:44.513Z,100.00
2022-08-29T05:46:48.716Z,100.00
2022-08-29T05:49:51.339Z,100.00
2022-08-29T05:52:53.921Z,100.00
2022-08-29T05:55:56.679Z,100.00
2022-08-29T05:58:59.497Z,100.00
2022-08-29T06:02:03.874Z,100.00
2022-08-29T06:05:07.166Z,100.00
2022-08-29T06:08:13.135Z,100.00
2022-08-29T06:11:17.259Z,99.52
2022-08-29T06:14:19.853Z,99.85
2022-08-29T06:17:23.802Z,100.00
2022-08-29T06:20:26.448Z,99.78
2022-08-29T06:23:29.063Z,99.11
2022-08-29T06:26:32.803Z,98.53
2022-08-29T06:29:43.508Z,97.87
2022-08-29T06:32:47.769Z,97.75
2022-08-29T06:35:50.337Z,97.38
2022-08-29T06:38:53.007Z,96.28
2022-08-29T06:41:55.601Z,95.51
2022-08-29T06:44:58.208Z,94.35
2022-08-29T06:48:02.107Z,94.27
2022-08-29T06:51:05.077Z,93.70
2022-08-29T06:54:09.166Z,94.02
2022-08-29T06:57:12.777Z,94.83
2022-08-29T07:00:22.126Z,94.32
2022-08-29T07:03:26.604Z,96.04
2022-08-29T07:06:29.813Z,94.77
2022-08-29T07:09:32.390Z,93.98
2022-08-29T07:12:35.293Z,93.22
2022-08-29T07:15:38.151Z,92.16
2022-08-29T07:18:42.102Z,92.36
2022-08-29T07:21:44.681Z,91.55
2022-08-29T07:24:47.307Z,91.78
2022-08-29T07:27:53.349Z,90.05
2022-08-29T07:30:56.213Z,89.86
2022-08-29T07:34:02.925Z,89.76
2022-08-29T07:37:06.122Z,88.75
2022-08-29T07:40:11.098Z,89.47
2022-08-29T07:43:19.249Z,90.20
2022-08-29T07:46:22.889Z,90.45
2022-08-29T07:49:40.339Z,90.27
2022-08-29T07:52:43.823Z,89.42
2022-08-29T07:55:46.632Z,88.40
2022-08-29T07:58:49.355Z,88.11
2022-08-29T08:01:52.266Z,85.62
2022-08-29T08:04:56.227Z,84.56
2022-08-29T08:08:02.159Z,85.42
2022-08-29T08:11:09.628Z,85.35
2022-08-29T08:14:12.980Z,85.32
2022-08-29T08:17:15.600Z,85.66
2022-08-29T08:20:19.701Z,85.72
2022-08-29T08:23:22.208Z,85.80
2022-08-29T08:26:25.023Z,85.78
2022-08-29T08:29:27.662Z,84.80
2022-08-29T08:32:32.667Z,84.67
2022-08-29T08:35:41.967Z,82.02
2022-08-29T08:38:44.915Z,82.43
2022-08-29T08:41:55.704Z,83.76
2022-08-29T08:45:09.020Z,82.63
2022-08-29T08:48:17.247Z,82.80
2022-08-29T08:51:24.554Z,81.68
2022-08-29T08:54:34.257Z,81.20
2022-08-29T08:57:40.866Z,82.05
2022-08-29T09:00:47.180Z,80.33
2022-08-29T09:04:10.497Z,79.91
2022-08-29T09:07:42.059Z,79.20
2022-08-29T09:10:58.855Z,78.90
2022-08-29T09:14:08.519Z,78.48
2022-08-29T09:17:20.304Z,75.20
2022-08-29T09:20:25.982Z,72.93
2022-08-29T09:23:37.435Z,72.29
2022-08-29T09:26:40.761Z,72.61
2022-08-29T09:29:43.702Z,73.88
2022-08-29T09:32:54.700Z,73.40
2022-08-29T09:35:57.291Z,74.43
2022-08-29T09:39:12.109Z,71.08
2022-08-29T09:42:19.257Z,72.09
2022-08-29T09:45:25.643Z,71.00
2022-08-29T09:48:32.132Z,72.50
2022-08-29T09:51:39.416Z,73.16
2022-08-29T09:54:44.432Z,73.70
2022-08-29T09:57:53.061Z,74.40
2022-08-29T10:01:02.182Z,73.78
2022-08-29T10:04:09.043Z,73.61
2022-08-29T10:07:17.415Z,72.77
2022-08-29T10:10:24.204Z,71.60
2022-08-29T10:13:34.376Z,70.96
2022-08-29T10:16:47.201Z,68.63
2022-08-29T10:19:50.353Z,68.73
2022-08-29T10:22:59.126Z,67.11
2022-08-29T10:26:10.569Z,67.25
2022-08-29T10:29:29.657Z,67.61
2022-08-29T10:32:55.949Z,69.59
2022-08-29T10:36:02.170Z,68.73
2022-08-29T10:39:13.670Z,68.24
2022-08-29T10:42:21.554Z,68.27
2022-08-29T10:45:30.684Z,68.23
2022-08-29T10:48:38.518Z,64.89
2022-08-29T10:51:48.431Z,61.79
2022-08-29T10:55:00.307Z,61.27
2022-08-29T10:58:12.781Z,63.39
2022-08-29T11:01:22.314Z,65.19
2022-08-29T11:04:31.788Z,65.87
2022-08-29T11:07:40.735Z,68.56
2022-08-29T11:10:49.673Z,69.46
2022-08-29T11:13:58.737Z,66.89
2022-08-29T11:17:06.971Z,68.55
2022-08-29T11:20:13.829Z,68.28
2022-08-29T11:23:28.103Z,69.89
2022-08-29T11:26:45.843Z,68.99
2022-08-29T11:29:57.894Z,68.13
2022-08-29T11:33:09.918Z,69.46
2022-08-29T11:36:40.633Z,68.42
2022-08-29T11:39:59.864Z,66.77
2022-08-29T11:43:12.420Z,61.86
2022-08-29T11:46:31.044Z,61.33
2022-08-29T11:49:40.857Z,61.98
2022-08-29T11:52:51.033Z,60.71
2022-08-29T11:56:21.413Z,59.99
2022-08-29T11:59:59.523Z,60.79
2022-08-29T12:03:04.561Z,61.51
2022-08-29T12:06:29.737Z,63.31
2022-08-29T12:09:51.047Z,63.05
2022-08-29T12:12:56.527Z,64.23
2022-08-29T12:16:08.652Z,64.48
2022-08-29T12:19:12.846Z,65.22
2022-08-29T12:22:53.033Z,65.44
2022-08-29T12:26:16.214Z,65.86
2022-08-29T12:29:22.048Z,67.12
2022-08-29T12:32:40.278Z,66.54
2022-08-29T12:36:10.793Z,67.49
2022-08-29T12:39:46.799Z,67.25
2022-08-29T12:43:07.748Z,67.63
2022-08-29T12:46:18.121Z,67.95
2022-08-29T12:49:25.578Z,67.84
2022-08-29T12:52:32.289Z,69.19
2022-08-29T12:55:39.851Z,68.89
2022-08-29T12:58:45.339Z,69.17
2022-08-29T13:01:50.452Z,69.37
2022-08-29T13:04:58.311Z,70.45
2022-08-29T13:08:09.630Z,70.91
2022-08-29T13:11:19.617Z,70.71
2022-08-29T13:14:23.690Z,71.11
2022-08-29T13:17:29.822Z,71.33
2022-08-29T13:20:46.727Z,70.23
2022-08-29T13:23:59.897Z,70.88
2022-08-29T13:27:06.309Z,65.71
2022-08-29T13:30:09.995Z,64.31
2022-08-29T13:33:34.822Z,63.78
2022-08-29T13:36:41.394Z,63.53
2022-08-29T13:39:47.837Z,64.00
2022-08-29T13:42:50.512Z,64.75
2022-08-29T13:46:03.410Z,65.77
2022-08-29T13:49:08.426Z,66.21
2022-08-29T13:52:11.572Z,67.13
2022-08-29T13:55:15.493Z,67.14
2022-08-29T13:58:22.686Z,66.17
2022-08-29T14:02:08.550Z,67.20
2022-08-29T14:04:48.659Z,68.23
2022-08-29T14:07:51.457Z,67.16
2022-08-29T14:10:55.358Z,63.80
2022-08-29T14:13:57.918Z,62.80
2022-08-29T14:17:00.672Z,62.48
2022-08-29T14:20:03.640Z,62.71
2022-08-29T14:23:06.301Z,64.33
2022-08-29T14:26:10.229Z,66.80
2022-08-29T14:29:12.953Z,68.09
2022-08-29T14:32:15.786Z,68.17
2022-08-29T14:35:25.731Z,68.32
2022-08-29T14:38:29.554Z,68.84
2022-08-29T14:41:33.830Z,70.87
2022-08-29T14:44:36.426Z,71.41
2022-08-29T14:47:39.507Z,70.55
2022-08-29T14:50:42.105Z,70.96
2022-08-29T14:53:51.605Z,69.97
2022-08-29T14:56:58.769Z,72.82
2022-08-29T15:00:01.392Z,70.41
2022-08-29T15:03:04.463Z,70.86
2022-08-29T15:06:07.594Z,71.77
2022-08-29T15:09:10.175Z,72.42
2022-08-29T15:12:15.721Z,73.46
2022-08-29T15:15:18.734Z,73.30
2022-08-29T15:19:00.691Z,75.00
2022-08-29T15:21:45.362Z,74.77
2022-08-29T15:24:50.008Z,74.68
2022-08-29T15:27:53.931Z,73.04
2022-08-29T15:30:56.542Z,73.21
2022-08-29T15:33:59.390Z,72.19
2022-08-29T15:37:02.223Z,74.02
2022-08-29T15:40:10.936Z,74.77
2022-08-29T15:43:16.851Z,75.52
2022-08-29T15:46:19.508Z,75.10
2022-08-29T15:49:25.557Z,75.77
2022-08-29T15:52:31.063Z,76.09
2022-08-29T15:55:33.954Z,77.48
2022-08-29T15:58:38.006Z,78.19
2022-08-29T16:01:43.541Z,79.48
2022-08-29T16:04:47.787Z,79.31
2022-08-29T16:07:50.601Z,80.80
2022-08-29T16:10:53.220Z,81.74
2022-08-29T16:14:15.672Z,81.05
2022-08-29T16:17:20.347Z,80.55
2022-08-29T16:20:23.170Z,80.35
2022-08-29T16:23:25.752Z,81.87
2022-08-29T16:26:28.464Z,83.87
2022-08-29T16:29:32.624Z,83.59
2022-08-29T16:32:35.460Z,84.30
2022-08-29T16:35:39.174Z,83.94
2022-08-29T16:38:42.853Z,84.01
2022-08-29T16:41:46.042Z,83.79
2022-08-29T16:44:50.007Z,84.67
2022-08-29T16:47:57.251Z,83.11
2022-08-29T16:51:00.180Z,82.12
2022-08-29T16:54:02.785Z,81.72
2022-08-29T16:57:05.758Z,81.77
2022-08-29T17:00:11.890Z,82.29
2022-08-29T17:03:19.412Z,82.34
2022-08-29T17:06:22.704Z,82.36
2022-08-29T17:09:25.342Z,81.31
2022-08-29T17:12:27.490Z,80.60
2022-08-29T17:15:30.751Z,80.87
2022-08-29T17:18:33.793Z,80.72
2022-08-29T17:21:36.683Z,81.07
2022-08-29T17:24:39.282Z,80.95
2022-08-29T17:27:55.506Z,80.55
2022-08-29T17:31:06.492Z,80.46
2022-08-29T17:34:13.088Z,80.39
2022-08-29T17:37:16.046Z,80.54
2022-08-29T17:40:19.131Z,80.66
2022-08-29T17:43:25.898Z,80.41
2022-08-29T17:46:30.193Z,80.64
2022-08-29T17:49:32.961Z,81.56
2022-08-29T17:52:35.611Z,81.01
2022-08-29T17:55:38.264Z,81.11
2022-08-29T17:58:40.881Z,80.57
2022-08-29T18:01:45.227Z,80.40
2022-08-29T18:04:47.859Z,80.52
2022-08-29T18:07:51.397Z,79.66
2022-08-29T18:10:53.986Z,79.76
2022-08-29T18:13:56.667Z,78.93
2022-08-29T18:17:00.674Z,80.29
2022-08-29T18:20:03.792Z,80.57
2022-08-29T18:23:06.349Z,80.10
2022-08-29T18:26:08.961Z,79.89
2022-08-29T18:29:11.707Z,80.36
2022-08-29T18:32:15.601Z,80.42
2022-08-29T18:35:18.673Z,80.94
2022-08-29T18:38:21.317Z,81.16
2022-08-29T18:41:23.865Z,80.61
2022-08-29T18:44:26.426Z,80.63
2022-08-29T18:47:30.380Z,80.98
2022-08-29T18:50:36.500Z,81.56
2022-08-29T18:53:39.780Z,81.86
2022-08-29T18:56:42.387Z,81.97
2022-08-29T18:59:45.046Z,82.07
2022-08-29T19:02:49.122Z,82.04
2022-08-29T19:05:53.862Z,82.38
2022-08-29T19:08:57.610Z,82.62
2022-08-29T19:12:00.544Z,82.77
2022-08-29T19:15:04.137Z,83.16
2022-08-29T19:18:09.473Z,83.35
2022-08-29T19:21:12.093Z,83.81
2022-08-29T19:24:14.693Z,83.69
2022-08-29T19:27:39.756Z,84.16
2022-08-29T19:30:40.090Z,85.19
2022-08-29T19:33:44.079Z,84.81
2022-08-29T19:36:47.333Z,84.58
2022-08-29T19:39:49.942Z,86.09
2022-08-29T19:42:53.992Z,86.40
2022-08-29T19:45:57.435Z,87.36
2022-08-29T19:52:10.786Z,86.80
2022-08-29T19:55:17.543Z,87.38
2022-08-29T19:58:20.228Z,87.88
2022-08-29T20:01:23.359Z,87.76
2022-08-29T20:04:27.532Z,88.49
2022-08-29T20:07:30.424Z,88.32
2022-08-29T20:10:34.882Z,89.09
2022-08-29T20:13:38.100Z,89.15
2022-08-29T20:16:41.712Z,89.11
2022-08-29T20:19:45.943Z,89.14
2022-08-29T20:22:49.165Z,89.94
2022-08-29T20:25:51.756Z,90.50
2022-08-29T20:28:54.841Z,89.72
2022-08-29T20:31:57.579Z,89.70
2022-08-29T20:35:02.968Z,89.84
2022-08-29T20:38:04.599Z,89.82
2022-08-29T20:41:07.256Z,90.50
2022-08-29T20:44:10.873Z,91.33
2022-08-29T20:47:15.621Z,90.40
2022-08-29T20:50:20.497Z,90.72
2022-08-29T20:53:32.415Z,90.14
2022-08-29T20:56:35.423Z,90.71
2022-08-29T20:59:39.376Z,90.22
2022-08-29T21:02:59.765Z,90.68
2022-08-29T21:06:04.329Z,91.11
2022-08-29T21:09:07.238Z,91.17
2022-08-29T21:12:11.704Z,91.03
2022-08-29T21:15:14.320Z,90.91
2022-08-29T21:18:20.216Z,91.09
2022-08-29T21:21:25.180Z,91.21
2022-08-29T21:24:28.783Z,90.77
2022-08-29T21:27:31.368Z,91.49
2022-08-29T21:30:34.440Z,91.42
2022-08-29T21:33:37.958Z,91.49
2022-08-29T21:36:41.995Z,91.98
2022-08-29T21:39:46.481Z,91.76
2022-08-29T21:42:49.037Z,91.80
2022-08-29T21:45:51.622Z,91.99
2022-08-29T21:48:56.679Z,91.50
2022-08-29T21:52:01.062Z,91.88
2022-08-29T21:55:05.023Z,92.11
2022-08-29T21:58:07.989Z,92.37
2022-08-29T22:01:11.364Z,92.74
2022-08-29T22:04:19.113Z,92.52
2022-08-29T22:07:33.130Z,92.54
2022-08-29T22:10:38.241Z,91.98
2022-08-29T22:13:41.167Z,92.57
2022-08-29T22:16:42.940Z,92.23
2022-08-29T22:19:45.758Z,92.60
2022-08-29T22:22:49.713Z,93.24
2022-08-29T22:25:53.756Z,93.64
2022-08-29T22:28:56.705Z,93.82
2022-08-29T22:32:00.485Z,93.29
2022-08-29T22:35:03.136Z,93.46
2022-08-29T22:38:07.091Z,94.03
2022-08-29T22:41:11.280Z,94.73
2022-08-29T22:44:59.612Z,94.75
2022-08-29T22:47:37.664Z,94.56
2022-08-29T22:50:40.317Z,95.41
2022-08-29T22:54:08.235Z,95.71
2022-08-29T22:57:13.593Z,94.81
2022-08-29T23:00:19.172Z,94.79
2022-08-29T23:03:21.790Z,95.23
2022-08-29T23:06:25.299Z,95.14
2022-08-29T23:09:35.392Z,94.88
2022-08-29T23:12:39.054Z,95.08
2022-08-29T23:15:41.706Z,95.41
2022-08-29T23:18:44.373Z,95.30
2022-08-29T23:21:46.981Z,94.74
2022-08-29T23:24:58.233Z,94.97
2022-08-29T23:28:02.027Z,94.70
2022-08-29T23:31:04.965Z,95.02
2022-08-29T23:34:07.999Z,94.98
2022-08-29T23:37:10.691Z,95.04
2022-08-29T23:40:21.089Z,95.33
2022-08-29T23:43:24.505Z,94.73
2022-08-29T23:46:27.454Z,94.42
2022-08-29T23:49:30.479Z,94.17
2022-08-29T23:52:33.114Z,94.75
2022-08-29T23:55:37.493Z,94.43
2022-08-29T23:58:40.099Z,94.24
